sensor_id;sensor_type;location;lat;lon;timestamp;pressure;altitude;pressure_sealevel;temperature;humidity
39949;BME280;29070;48.102;-1.652;2023-01-26T00:01:41;102362.84;;;4.95;75.69
39949;BME280;29070;48.102;-1.652;2023-01-26T00:06:43;102350.69;;;4.95;75.99
39949;BME280;29070;48.102;-1.652;2023-01-26T00:11:44;102345.47;;;4.95;76.42
39949;BME280;29070;48.102;-1.652;2023-01-26T00:16:44;102333.53;;;4.93;76.37
39949;BME280;29070;48.102;-1.652;2023-01-26T00:21:44;102331.50;;;4.85;76.34
39949;BME280;29070;48.102;-1.652;2023-01-26T00:26:45;102319.44;;;4.84;76.48
39949;BME280;29070;48.102;-1.652;2023-01-26T00:31:45;102311.75;;;4.83;76.85
39949;BME280;29070;48.102;-1.652;2023-01-26T00:36:45;102305.72;;;4.82;76.76
39949;BME280;29070;48.102;-1.652;2023-01-26T00:41:46;102305.72;;;4.82;76.88
39949;BME280;29070;48.102;-1.652;2023-01-26T00:47:05;102298.16;;;4.79;77.01
39949;BME280;29070;48.102;-1.652;2023-01-26T00:52:06;102288.47;;;4.81;76.91
39949;BME280;29070;48.102;-1.652;2023-01-26T00:57:06;102275.94;;;4.75;77.08
39949;BME280;29070;48.102;-1.652;2023-01-26T01:02:07;102276.63;;;4.77;77.26
39949;BME280;29070;48.102;-1.652;2023-01-26T01:07:07;102271.19;;;4.80;77.32
39949;BME280;29070;48.102;-1.652;2023-01-26T01:12:07;102272.88;;;4.81;77.63
39949;BME280;29070;48.102;-1.652;2023-01-26T01:17:08;102268.59;;;4.80;77.71
39949;BME280;29070;48.102;-1.652;2023-01-26T01:22:08;102276.19;;;4.83;77.77
39949;BME280;29070;48.102;-1.652;2023-01-26T01:27:08;102281.38;;;4.83;77.69
39949;BME280;29070;48.102;-1.652;2023-01-26T01:32:09;102282.31;;;4.82;77.69
39949;BME280;29070;48.102;-1.652;2023-01-26T01:37:09;102287.03;;;4.77;77.67
39949;BME280;29070;48.102;-1.652;2023-01-26T01:42:09;102307.13;;;4.64;77.60
39949;BME280;29070;48.102;-1.652;2023-01-26T01:47:23;102297.44;;;4.66;77.97
39949;BME280;29070;48.102;-1.652;2023-01-26T01:52:29;102287.75;;;4.68;78.20
39949;BME280;29070;48.102;-1.652;2023-01-26T01:57:35;102285.03;;;4.69;78.13
39949;BME280;29070;48.102;-1.652;2023-01-26T02:02:45;102280.75;;;4.68;78.24
39949;BME280;29070;48.102;-1.652;2023-01-26T02:08:07;102275.44;;;4.70;78.30
39949;BME280;29070;48.102;-1.652;2023-01-26T02:13:09;102271.69;;;4.74;78.51
39949;BME280;29070;48.102;-1.652;2023-01-26T02:18:10;102273.31;;;4.75;78.84
39949;BME280;29070;48.102;-1.652;2023-01-26T02:28:26;102242.59;;;4.80;78.80
39949;BME280;29070;48.102;-1.652;2023-01-26T02:33:29;102224.38;;;4.80;79.01
39949;BME280;29070;48.102;-1.652;2023-01-26T02:38:40;102219.19;;;4.80;79.11
39949;BME280;29070;48.102;-1.652;2023-01-26T02:43:41;102229.09;;;4.75;79.17
39949;BME280;29070;48.102;-1.652;2023-01-26T02:48:42;102216.09;;;4.75;79.32
39949;BME280;29070;48.102;-1.652;2023-01-26T02:54:00;102204.50;;;4.79;79.20
39949;BME280;29070;48.102;-1.652;2023-01-26T02:59:01;102199.56;;;4.76;79.48
39949;BME280;29070;48.102;-1.652;2023-01-26T03:04:01;102204.66;;;4.77;79.62
39949;BME280;29070;48.102;-1.652;2023-01-26T03:09:01;102202.75;;;4.80;79.51
39949;BME280;29070;48.102;-1.652;2023-01-26T03:14:02;102204.06;;;4.74;79.64
39949;BME280;29070;48.102;-1.652;2023-01-26T03:19:03;102207.59;;;4.73;79.95
39949;BME280;29070;48.102;-1.652;2023-01-26T03:24:03;102204.06;;;4.74;79.73
39949;BME280;29070;48.102;-1.652;2023-01-26T03:29:23;102201.47;;;4.74;79.87
39949;BME280;29070;48.102;-1.652;2023-01-26T03:34:26;102193.66;;;4.74;80.17
39949;BME280;29070;48.102;-1.652;2023-01-26T03:39:26;102200.72;;;4.72;80.26
39949;BME280;29070;48.102;-1.652;2023-01-26T03:44:45;102185.13;;;4.72;80.51
39949;BME280;29070;48.102;-1.652;2023-01-26T03:50:05;102183.00;;;4.77;80.62
39949;BME280;29070;48.102;-1.652;2023-01-26T03:55:24;102189.75;;;4.80;80.89
39949;BME280;29070;48.102;-1.652;2023-01-26T04:00:43;102182.03;;;4.89;80.52
39949;BME280;29070;48.102;-1.652;2023-01-26T04:05:43;102171.16;;;4.95;80.74
39949;BME280;29070;48.102;-1.652;2023-01-26T04:11:02;102168.88;;;5.02;80.65
39949;BME280;29070;48.102;-1.652;2023-01-26T04:16:03;102161.63;;;5.06;80.63
39949;BME280;29070;48.102;-1.652;2023-01-26T04:21:22;102159.75;;;5.08;80.94
39949;BME280;29070;48.102;-1.652;2023-01-26T04:26:30;102144.13;;;5.08;80.90
39949;BME280;29070;48.102;-1.652;2023-01-26T04:31:37;102143.88;;;5.11;80.93
39949;BME280;29070;48.102;-1.652;2023-01-26T04:36:38;102135.84;;;5.14;81.21
39949;BME280;29070;48.102;-1.652;2023-01-26T04:41:39;102148.63;;;5.17;81.20
39949;BME280;29070;48.102;-1.652;2023-01-26T04:46:39;102145.50;;;5.23;81.53
39949;BME280;29070;48.102;-1.652;2023-01-26T04:51:40;102143.22;;;5.30;81.92
39949;BME280;29070;48.102;-1.652;2023-01-26T04:56:40;102145.44;;;5.34;81.85
39949;BME280;29070;48.102;-1.652;2023-01-26T05:01:41;102147.31;;;5.44;82.22
39949;BME280;29070;48.102;-1.652;2023-01-26T05:06:41;102141.59;;;5.50;82.17
39949;BME280;29070;48.102;-1.652;2023-01-26T05:11:42;102147.81;;;5.59;82.34
39949;BME280;29070;48.102;-1.652;2023-01-26T05:16:42;102145.41;;;5.67;82.33
39949;BME280;29070;48.102;-1.652;2023-01-26T05:21:42;102142.31;;;5.73;82.26
39949;BME280;29070;48.102;-1.652;2023-01-26T05:26:43;102146.84;;;5.81;82.29
39949;BME280;29070;48.102;-1.652;2023-01-26T05:31:43;102154.88;;;5.89;82.54
39949;BME280;29070;48.102;-1.652;2023-01-26T05:36:43;102151.03;;;5.93;82.74
39949;BME280;29070;48.102;-1.652;2023-01-26T05:41:44;102154.34;;;5.95;82.88
39949;BME280;29070;48.102;-1.652;2023-01-26T05:46:44;102144.41;;;6.00;82.76
39949;BME280;29070;48.102;-1.652;2023-01-26T05:51:45;102141.53;;;6.03;82.73
39949;BME280;29070;48.102;-1.652;2023-01-26T05:56:45;102147.31;;;6.07;83.00
39949;BME280;29070;48.102;-1.652;2023-01-26T06:01:45;102146.09;;;6.11;82.75
39949;BME280;29070;48.102;-1.652;2023-01-26T06:06:46;102153.53;;;6.16;82.84
39949;BME280;29070;48.102;-1.652;2023-01-26T06:11:46;102160.25;;;6.18;82.96
39949;BME280;29070;48.102;-1.652;2023-01-26T06:16:46;102164.41;;;6.21;83.23
39949;BME280;29070;48.102;-1.652;2023-01-26T06:21:47;102169.34;;;6.24;83.43
39949;BME280;29070;48.102;-1.652;2023-01-26T06:26:48;102167.41;;;6.26;83.04
39949;BME280;29070;48.102;-1.652;2023-01-26T06:31:48;102167.28;;;6.27;83.08
39949;BME280;29070;48.102;-1.652;2023-01-26T06:36:49;102174.88;;;6.30;83.16
39949;BME280;29070;48.102;-1.652;2023-01-26T06:41:49;102166.91;;;6.32;83.50
39949;BME280;29070;48.102;-1.652;2023-01-26T06:46:49;102177.09;;;6.35;83.43
39949;BME280;29070;48.102;-1.652;2023-01-26T06:52:04;102166.66;;;6.35;83.62
39949;BME280;29070;48.102;-1.652;2023-01-26T06:57:18;102173.25;;;6.39;83.61
39949;BME280;29070;48.102;-1.652;2023-01-26T07:02:20;102177.53;;;6.40;83.69
39949;BME280;29070;48.102;-1.652;2023-01-26T07:07:20;102183.44;;;6.42;83.58
39949;BME280;29070;48.102;-1.652;2023-01-26T07:12:21;102183.16;;;6.45;83.53
39949;BME280;29070;48.102;-1.652;2023-01-26T07:17:21;102189.78;;;6.49;83.74
39949;BME280;29070;48.102;-1.652;2023-01-26T07:22:22;102188.81;;;6.51;83.84
39949;BME280;29070;48.102;-1.652;2023-01-26T07:27:22;102189.78;;;6.49;83.75
39949;BME280;29070;48.102;-1.652;2023-01-26T07:32:22;102196.38;;;6.54;84.24
39949;BME280;29070;48.102;-1.652;2023-01-26T07:37:27;102188.56;;;6.54;83.95
39949;BME280;29070;48.102;-1.652;2023-01-26T07:42:27;102198.03;;;6.55;84.24
39949;BME280;29070;48.102;-1.652;2023-01-26T07:47:30;102205.88;;;6.55;84.21
39949;BME280;29070;48.102;-1.652;2023-01-26T07:52:30;102211.22;;;6.53;84.17
39949;BME280;29070;48.102;-1.652;2023-01-26T07:57:30;102218.75;;;6.56;83.92
39949;BME280;29070;48.102;-1.652;2023-01-26T08:02:32;102224.13;;;6.55;84.25
39949;BME280;29070;48.102;-1.652;2023-01-26T08:07:33;102230.16;;;6.55;84.48
39949;BME280;29070;48.102;-1.652;2023-01-26T08:12:34;102234.28;;;6.58;84.50
39949;BME280;29070;48.102;-1.652;2023-01-26T08:17:34;102246.38;;;6.59;84.38
39949;BME280;29070;48.102;-1.652;2023-01-26T08:22:35;102249.41;;;6.64;84.59
39949;BME280;29070;48.102;-1.652;2023-01-26T08:27:35;102246.94;;;6.62;84.64
39949;BME280;29070;48.102;-1.652;2023-01-26T08:32:36;102268.38;;;6.66;84.77
39949;BME280;29070;48.102;-1.652;2023-01-26T08:37:36;102275.22;;;6.67;84.65
39949;BME280;29070;48.102;-1.652;2023-01-26T08:42:37;102282.13;;;6.68;84.67
39949;BME280;29070;48.102;-1.652;2023-01-26T08:47:37;102289.00;;;6.69;84.60
39949;BME280;29070;48.102;-1.652;2023-01-26T08:52:37;102289.69;;;6.71;84.38
39949;BME280;29070;48.102;-1.652;2023-01-26T08:57:38;102309.34;;;6.75;84.63
39949;BME280;29070;48.102;-1.652;2023-01-26T09:02:38;102319.53;;;6.78;84.76
39949;BME280;29070;48.102;-1.652;2023-01-26T09:07:39;102319.25;;;6.81;84.81
39949;BME280;29070;48.102;-1.652;2023-01-26T09:12:39;102345.53;;;6.90;84.74
39949;BME280;29070;48.102;-1.652;2023-01-26T09:17:39;102339.38;;;6.91;84.55
39949;BME280;29070;48.102;-1.652;2023-01-26T09:22:41;102358.06;;;6.96;84.77
39949;BME280;29070;48.102;-1.652;2023-01-26T09:27:42;102359.72;;;6.97;84.57
39949;BME280;29070;48.102;-1.652;2023-01-26T09:32:43;102367.97;;;7.02;84.76
39949;BME280;29070;48.102;-1.652;2023-01-26T09:37:44;102373.06;;;7.03;84.65
39949;BME280;29070;48.102;-1.652;2023-01-26T09:42:57;102369.94;;;7.10;84.59
39949;BME280;29070;48.102;-1.652;2023-01-26T09:53:14;102377.94;;;7.18;84.56
39949;BME280;29070;48.102;-1.652;2023-01-26T09:58:37;102370.25;;;7.16;84.65
39949;BME280;29070;48.102;-1.652;2023-01-26T10:03:42;102371.50;;;7.22;84.71
39949;BME280;29070;48.102;-1.652;2023-01-26T10:08:46;102371.91;;;7.17;84.34
39949;BME280;29070;48.102;-1.652;2023-01-26T10:13:52;102371.63;;;7.20;84.22
39949;BME280;29070;48.102;-1.652;2023-01-26T10:18:59;102368.06;;;7.21;84.15
39949;BME280;29070;48.102;-1.652;2023-01-26T10:24:02;102374.66;;;7.25;84.53
39949;BME280;29070;48.102;-1.652;2023-01-26T10:29:02;102377.47;;;7.34;84.21
39949;BME280;29070;48.102;-1.652;2023-01-26T10:39:12;102394.50;;;7.38;84.12
39949;BME280;29070;48.102;-1.652;2023-01-26T10:49:18;102405.97;;;7.47;83.80
39949;BME280;29070;48.102;-1.652;2023-01-26T10:54:26;102403.66;;;7.53;84.00
39949;BME280;29070;48.102;-1.652;2023-01-26T11:04:30;102387.97;;;7.53;83.48
39949;BME280;29070;48.102;-1.652;2023-01-26T11:09:30;102382.47;;;7.56;83.53
39949;BME280;29070;48.102;-1.652;2023-01-26T11:14:31;102380.97;;;7.63;83.69
39949;BME280;29070;48.102;-1.652;2023-01-26T11:19:55;102385.66;;;7.70;83.88
39949;BME280;29070;48.102;-1.652;2023-01-26T11:57:17;102355.56;;;8.24;82.89
39949;BME280;29070;48.102;-1.652;2023-01-26T12:02:35;102357.63;;;8.30;83.18
39949;BME280;29070;48.102;-1.652;2023-01-26T12:07:47;102344.81;;;8.27;82.72
39949;BME280;29070;48.102;-1.652;2023-01-26T12:13:09;102351.56;;;8.39;82.92
39949;BME280;29070;48.102;-1.652;2023-01-26T12:18:28;102351.31;;;8.43;82.18
39949;BME280;29070;48.102;-1.652;2023-01-26T12:34:33;102350.19;;;8.35;81.42
39949;BME280;29070;48.102;-1.652;2023-01-26T12:39:38;102345.09;;;8.34;81.66
39949;BME280;29070;48.102;-1.652;2023-01-26T13:00:05;102330.78;;;8.48;81.24
39949;BME280;29070;48.102;-1.652;2023-01-26T13:05:26;102334.91;;;8.50;80.78
39949;BME280;29070;48.102;-1.652;2023-01-26T13:10:28;102328.41;;;8.64;80.88
39949;BME280;29070;48.102;-1.652;2023-01-26T13:15:30;102325.78;;;8.64;80.95
39949;BME280;29070;48.102;-1.652;2023-01-26T13:20:45;102322.31;;;8.73;80.51
39949;BME280;29070;48.102;-1.652;2023-01-26T13:31:31;102330.41;;;8.80;80.30
39949;BME280;29070;48.102;-1.652;2023-01-26T13:36:35;102322.97;;;8.75;79.80
39949;BME280;29070;48.102;-1.652;2023-01-26T13:41:43;102322.72;;;8.69;79.72
39949;BME280;29070;48.102;-1.652;2023-01-26T13:46:55;102315.31;;;8.64;79.86
39949;BME280;29070;48.102;-1.652;2023-01-26T13:51:58;102320.25;;;8.67;79.48
39949;BME280;29070;48.102;-1.652;2023-01-26T13:57:06;102316.53;;;8.60;79.47
39949;BME280;29070;48.102;-1.652;2023-01-26T14:02:19;102315.19;;;8.56;79.10
39949;BME280;29070;48.102;-1.652;2023-01-26T14:07:27;102317.94;;;8.54;78.89
39949;BME280;29070;48.102;-1.652;2023-01-26T14:12:32;102315.63;;;8.51;79.03
39949;BME280;29070;48.102;-1.652;2023-01-26T14:17:45;102311.22;;;8.52;78.78
39949;BME280;29070;48.102;-1.652;2023-01-26T14:28:14;102312.84;;;8.53;78.49
39949;BME280;29070;48.102;-1.652;2023-01-26T14:33:16;102312.59;;;8.46;78.43
39949;BME280;29070;48.102;-1.652;2023-01-26T14:38:17;102313.69;;;8.44;78.60
39949;BME280;29070;48.102;-1.652;2023-01-26T14:43:19;102325.97;;;8.43;78.27
39949;BME280;29070;48.102;-1.652;2023-01-26T14:48:22;102329.63;;;8.40;78.13
39949;BME280;29070;48.102;-1.652;2023-01-26T14:53:24;102321.41;;;8.35;78.13
39949;BME280;29070;48.102;-1.652;2023-01-26T14:58:31;102339.72;;;8.35;78.11
39949;BME280;29070;48.102;-1.652;2023-01-26T15:03:34;102339.00;;;8.33;77.81
39949;BME280;29070;48.102;-1.652;2023-01-26T15:08:38;102342.88;;;8.29;77.38
39949;BME280;29070;48.102;-1.652;2023-01-26T15:13:40;102350.19;;;8.26;77.66
39949;BME280;29070;48.102;-1.652;2023-01-26T15:18:40;102363.41;;;8.24;77.54
39949;BME280;29070;48.102;-1.652;2023-01-26T15:23:45;102371.25;;;8.24;77.54
39949;BME280;29070;48.102;-1.652;2023-01-26T15:28:53;102377.59;;;8.21;77.33
39949;BME280;29070;48.102;-1.652;2023-01-26T15:33:54;102366.31;;;8.21;77.41
39949;BME280;29070;48.102;-1.652;2023-01-26T15:39:03;102380.22;;;8.21;76.82
39949;BME280;29070;48.102;-1.652;2023-01-26T15:44:18;102380.22;;;8.21;77.15
39949;BME280;29070;48.102;-1.652;2023-01-26T15:49:19;102374.28;;;8.19;76.87
39949;BME280;29070;48.102;-1.652;2023-01-26T15:54:22;102383.09;;;8.18;76.76
39949;BME280;29070;48.102;-1.652;2023-01-26T15:59:22;102383.53;;;8.14;76.65
39949;BME280;29070;48.102;-1.652;2023-01-26T16:04:22;102378.69;;;8.09;76.50
39949;BME280;29070;48.102;-1.652;2023-01-26T16:09:24;102383.63;;;8.02;76.21
39949;BME280;29070;48.102;-1.652;2023-01-26T16:14:24;102375.09;;;8.00;76.43
39949;BME280;29070;48.102;-1.652;2023-01-26T16:19:25;102390.94;;;7.99;76.11
39949;BME280;29070;48.102;-1.652;2023-01-26T16:24:25;102385.81;;;7.97;76.10
39949;BME280;29070;48.102;-1.652;2023-01-26T16:29:25;102392.16;;;7.95;76.19
39949;BME280;29070;48.102;-1.652;2023-01-26T16:34:27;102394.91;;;7.93;76.06
39949;BME280;29070;48.102;-1.652;2023-01-26T16:39:27;102412.09;;;7.86;75.81
39949;BME280;29070;48.102;-1.652;2023-01-26T16:44:27;102410.03;;;7.80;75.75
39949;BME280;29070;48.102;-1.652;2023-01-26T16:49:28;102413.34;;;7.82;75.93
39949;BME280;29070;48.102;-1.652;2023-01-26T16:54:28;102417.03;;;7.79;75.78
39949;BME280;29070;48.102;-1.652;2023-01-26T16:59:28;102414.16;;;7.73;75.81
39949;BME280;29070;48.102;-1.652;2023-01-26T17:04:29;102421.56;;;7.68;75.90
39949;BME280;29070;48.102;-1.652;2023-01-26T17:09:29;102417.16;;;7.58;75.44
39949;BME280;29070;48.102;-1.652;2023-01-26T17:14:29;102422.88;;;7.52;75.66
39949;BME280;29070;48.102;-1.652;2023-01-26T17:19:30;102433.44;;;7.41;75.42
39949;BME280;29070;48.102;-1.652;2023-01-26T17:24:30;102432.56;;;7.31;75.37
39949;BME280;29070;48.102;-1.652;2023-01-26T17:29:30;102439.28;;;7.23;75.73
39949;BME280;29070;48.102;-1.652;2023-01-26T17:34:32;102437.88;;;7.19;75.64
39949;BME280;29070;48.102;-1.652;2023-01-26T17:39:33;102438.78;;;7.09;75.52
39949;BME280;29070;48.102;-1.652;2023-01-26T17:44:33;102444.63;;;7.01;75.49
39949;BME280;29070;48.102;-1.652;2023-01-26T17:49:34;102450.50;;;6.93;75.87
39949;BME280;29070;48.102;-1.652;2023-01-26T17:54:35;102447.56;;;6.86;75.37
39949;BME280;29070;48.102;-1.652;2023-01-26T17:59:35;102454.13;;;6.81;75.74
39949;BME280;29070;48.102;-1.652;2023-01-26T18:04:36;102451.66;;;6.79;75.60
39949;BME280;29070;48.102;-1.652;2023-01-26T18:09:36;102459.03;;;6.74;75.78
39949;BME280;29070;48.102;-1.652;2023-01-26T18:14:36;102463.53;;;6.72;75.88
39949;BME280;29070;48.102;-1.652;2023-01-26T18:19:37;102462.16;;;6.68;76.08
39949;BME280;29070;48.102;-1.652;2023-01-26T18:24:37;102467.25;;;6.70;75.84
39949;BME280;29070;48.102;-1.652;2023-01-26T18:29:38;102469.16;;;6.67;76.34
39949;BME280;29070;48.102;-1.652;2023-01-26T18:34:38;102467.88;;;6.62;75.85
39949;BME280;29070;48.102;-1.652;2023-01-26T18:39:42;102477.59;;;6.60;76.38
39949;BME280;29070;48.102;-1.652;2023-01-26T18:44:43;102470.28;;;6.54;76.29
39949;BME280;29070;48.102;-1.652;2023-01-26T18:49:43;102462.50;;;6.42;76.14
39949;BME280;29070;48.102;-1.652;2023-01-26T18:54:43;102462.06;;;6.37;76.12
39949;BME280;29070;48.102;-1.652;2023-01-26T18:59:44;102471.09;;;6.33;76.10
39949;BME280;29070;48.102;-1.652;2023-01-26T19:04:46;102469.78;;;6.27;76.14
39949;BME280;29070;48.102;-1.652;2023-01-26T19:09:46;102474.28;;;6.25;76.65
39949;BME280;29070;48.102;-1.652;2023-01-26T19:14:46;102477.97;;;6.23;76.55
39949;BME280;29070;48.102;-1.652;2023-01-26T19:19:47;102480.59;;;6.23;76.91
39949;BME280;29070;48.102;-1.652;2023-01-26T19:24:47;102486.75;;;6.22;77.05
39949;BME280;29070;48.102;-1.652;2023-01-26T19:29:47;102472.06;;;6.21;76.85
39949;BME280;29070;48.102;-1.652;2023-01-26T19:34:50;102477.50;;;6.18;77.04
39949;BME280;29070;48.102;-1.652;2023-01-26T19:39:50;102473.97;;;6.07;76.83
39949;BME280;29070;48.102;-1.652;2023-01-26T19:44:51;102484.78;;;6.03;76.92
39949;BME280;29070;48.102;-1.652;2023-01-26T19:49:51;102480.84;;;5.97;77.37
39949;BME280;29070;48.102;-1.652;2023-01-26T19:54:51;102487.94;;;5.95;77.62
39949;BME280;29070;48.102;-1.652;2023-01-26T19:59:52;102480.84;;;5.97;77.56
39949;BME280;29070;48.102;-1.652;2023-01-26T20:04:53;102471.88;;;6.01;77.42
39949;BME280;29070;48.102;-1.652;2023-01-26T20:09:53;102469.97;;;6.03;77.61
39949;BME280;29070;48.102;-1.652;2023-01-26T20:14:53;102466.16;;;6.07;77.98
39949;BME280;29070;48.102;-1.652;2023-01-26T20:19:54;102477.97;;;6.11;77.74
39949;BME280;29070;48.102;-1.652;2023-01-26T20:24:55;102469.00;;;6.16;78.13
39949;BME280;29070;48.102;-1.652;2023-01-26T20:29:55;102474.19;;;6.16;77.94
39949;BME280;29070;48.102;-1.652;2023-01-26T20:34:56;102471.59;;;6.16;78.18
39949;BME280;29070;48.102;-1.652;2023-01-26T20:39:56;102476.69;;;6.17;77.99
39949;BME280;29070;48.102;-1.652;2023-01-26T20:44:57;102464.47;;;6.18;77.89
39949;BME280;29070;48.102;-1.652;2023-01-26T20:49:58;102480.00;;;6.19;78.05
39949;BME280;29070;48.102;-1.652;2023-01-26T20:54:58;102472.88;;;6.21;78.52
39949;BME280;29070;48.102;-1.652;2023-01-26T20:59:58;102475.97;;;6.15;78.37
39949;BME280;29070;48.102;-1.652;2023-01-26T21:04:59;102482.13;;;6.14;78.24
39949;BME280;29070;48.102;-1.652;2023-01-26T21:09:59;102489.00;;;6.15;78.40
39949;BME280;29070;48.102;-1.652;2023-01-26T21:15:00;102490.31;;;6.09;78.40
39949;BME280;29070;48.102;-1.652;2023-01-26T21:20:00;102485.09;;;6.09;78.17
39949;BME280;29070;48.102;-1.652;2023-01-26T21:25:00;102493.63;;;6.11;78.50
39949;BME280;29070;48.102;-1.652;2023-01-26T21:30:01;102488.56;;;6.10;78.39
39949;BME280;29070;48.102;-1.652;2023-01-26T21:35:01;102496.97;;;6.14;78.77
39949;BME280;29070;48.102;-1.652;2023-01-26T21:40:02;102494.22;;;6.15;78.55
39949;BME280;29070;48.102;-1.652;2023-01-26T21:45:03;102492.34;;;6.17;78.54
39949;BME280;29070;48.102;-1.652;2023-01-26T21:50:22;102493.75;;;6.21;78.61
39949;BME280;29070;48.102;-1.652;2023-01-26T21:55:45;102487.72;;;6.21;78.91
39949;BME280;29070;48.102;-1.652;2023-01-26T22:00:45;102488.66;;;6.20;78.89
39949;BME280;29070;48.102;-1.652;2023-01-26T22:05:51;102481.75;;;6.19;79.09
39949;BME280;29070;48.102;-1.652;2023-01-26T22:10:53;102484.13;;;6.22;78.91
39949;BME280;29070;48.102;-1.652;2023-01-26T22:15:58;102474.53;;;6.22;79.12
39949;BME280;29070;48.102;-1.652;2023-01-26T22:20:59;102470.16;;;6.23;79.08
39949;BME280;29070;48.102;-1.652;2023-01-26T22:26:07;102454.41;;;6.24;78.90
39949;BME280;29070;48.102;-1.652;2023-01-26T22:31:08;102454.97;;;6.28;78.99
39949;BME280;29070;48.102;-1.652;2023-01-26T22:36:10;102456.72;;;6.27;79.21
39949;BME280;29070;48.102;-1.652;2023-01-26T22:41:16;102449.75;;;6.28;79.40
39949;BME280;29070;48.102;-1.652;2023-01-26T22:46:20;102436.44;;;6.31;79.08
39949;BME280;29070;48.102;-1.652;2023-01-26T22:51:23;102442.41;;;6.33;79.34
39949;BME280;29070;48.102;-1.652;2023-01-26T22:56:24;102448.31;;;6.35;79.02
39949;BME280;29070;48.102;-1.652;2023-01-26T23:01:27;102443.09;;;6.35;79.02
39949;BME280;29070;48.102;-1.652;2023-01-26T23:06:28;102451.50;;;6.39;79.29
39949;BME280;29070;48.102;-1.652;2023-01-26T23:11:29;102458.47;;;6.38;79.24
39949;BME280;29070;48.102;-1.652;2023-01-26T23:16:29;102462.28;;;6.34;79.40
39949;BME280;29070;48.102;-1.652;2023-01-26T23:21:30;102458.16;;;6.32;79.50
39949;BME280;29070;48.102;-1.652;2023-01-26T23:26:30;102465.88;;;6.33;79.32
39949;BME280;29070;48.102;-1.652;2023-01-26T23:31:31;102459.09;;;6.30;79.43
39949;BME280;29070;48.102;-1.652;2023-01-26T23:36:31;102465.25;;;6.29;79.33
39949;BME280;29070;48.102;-1.652;2023-01-26T23:41:32;102465.41;;;6.28;79.35
39949;BME280;29070;48.102;-1.652;2023-01-26T23:46:32;102479.25;;;6.28;79.52
39949;BME280;29070;48.102;-1.652;2023-01-26T23:51:32;102477.34;;;6.30;79.50
39949;BME280;29070;48.102;-1.652;2023-01-26T23:56:33;102480.09;;;6.29;79.46
